Airfield :
LOGIN :

Register | Disclaimer

   EN    FR    IT 

 










Legend :    VFR   Marginal VFR   IFR   Intensive IFR   Very Intensive IFR
Visi :
Ceiling :
>= 8 km
>= 3000ft
5 to 8 km
1000 to 3000 ft
1500m to 5 km
500 to 1000 ft
800 to 1500m
200 to 500 ft
< 800m
< 200 ft
Symbols :   Thunderstorms  Fog  Heavy snow  Heavy precipitations  Wind > 20 kt
SIGMETs :     Misc.  Thunderstorms  Icing  Turbulence  Mountain Waves  Volcanic Ashes







- Airport Elevation : 464 ft
- IATA code : EVX
- Download approach charts


LFOE - Evreux

CURRENT METAR :
  • 160830Z AUTO 29007KT 9999 FEW014 03/02 Q1016

EXPIRED METARs :
  • 160800Z AUTO 32007KT 290V350 9999 OVC015 04/02 Q1015
  • 160730Z AUTO 31005KT 280V350 9999 BKN014 BKN020 04/02 Q1015
  • 160700Z AUTO 32007KT 280V350 9999 BKN014 BKN020 OVC026 04/02 Q1014
  • 160630Z AUTO 32007KT 280V350 9999 OVC026 04/02 Q1014
  • 160600Z AUTO 31008KT 290V350 9999 FEW021 OVC028 04/02 Q1013

TAF TAF LFOE
Valid from the 16 at 09:00 until the 17 at 09:00 UTC


160800Z 1609/1709 32008KT 9999 SCT015 BKN025
TEMPO 1612/1615 32010G20KT 5000 SHRA BKN020TCU
TEMPO 1620/1624 4000 RA BKN010
No reported NOTAMs for that airfield.



MET'MAP, your aeronautical weather chart ! - Copyright ORBIFLY December 2007 - Disclaimer

ORBIFLY MET'MAP TEAM :

Programming & Development : Alexandra Zaïnal
Concept & Development : Baudouin d'Aumeries
Co-Development & Prog : Marc-Olivier Méhu
Technical & hardware support : Manuel Goepfert

Contact : metmap@orbifly.com




SOURCES & CREDITS :

   NOAA